createdAt,value
2023-05-10T00:00:07.587Z,45.9
2023-05-10T00:06:12.797Z,45.9
2023-05-10T00:12:18.470Z,45.9
2023-05-10T00:18:24.416Z,46
2023-05-10T00:24:30.433Z,46.1
2023-05-10T00:30:36.218Z,45.9
2023-05-10T00:36:42.012Z,46.1
2023-05-10T00:42:47.984Z,46.1
2023-05-10T00:48:53.599Z,46.2
2023-05-10T00:54:59.189Z,46.3
2023-05-10T01:01:04.772Z,46.2
2023-05-10T01:07:10.327Z,46.2
2023-05-10T01:13:16.249Z,46.2
2023-05-10T01:19:21.816Z,46.2
2023-05-10T01:25:27.274Z,46.2
2023-05-10T01:31:33.075Z,46.3
2023-05-10T01:37:39.174Z,46.3
2023-05-10T01:43:44.790Z,46.2
2023-05-10T01:49:50.499Z,46.3
2023-05-10T01:55:56.617Z,46.4
2023-05-10T02:02:02.664Z,46.4
2023-05-10T02:08:07.849Z,46.4
2023-05-10T02:14:13.467Z,46.4
2023-05-10T02:20:19.986Z,46.4
2023-05-10T02:26:26.189Z,46.4
2023-05-10T02:32:31.766Z,46.4
2023-05-10T02:38:37.024Z,46.4
2023-05-10T02:44:42.687Z,46.4
2023-05-10T02:50:48.487Z,46.5
2023-05-10T02:56:53.652Z,46.5
2023-05-10T03:02:59.221Z,46.4
2023-05-10T03:09:05.224Z,46.5
2023-05-10T03:15:11.048Z,46.6
2023-05-10T03:21:16.775Z,46.6
2023-05-10T03:27:22.721Z,46.5
2023-05-10T03:33:28.298Z,46.5
2023-05-10T03:39:33.939Z,46.6
2023-05-10T03:45:40.080Z,46.6
2023-05-10T03:51:45.910Z,46.7
2023-05-10T03:57:51.830Z,46.6
2023-05-10T04:03:57.642Z,46.6
2023-05-10T04:10:03.595Z,46.7
2023-05-10T04:16:09.360Z,46.7
2023-05-10T04:22:15.340Z,46.6
2023-05-10T04:28:21.321Z,46.6
2023-05-10T04:34:27.778Z,46.6
2023-05-10T04:40:33.696Z,46.6
2023-05-10T04:46:39.549Z,46.7
2023-05-10T04:52:45.053Z,46.7
2023-05-10T04:58:50.883Z,46.6
2023-05-10T05:04:55.999Z,46.7
2023-05-10T05:11:01.244Z,46.7
2023-05-10T05:17:06.730Z,46.7
2023-05-10T05:23:11.950Z,46.7
2023-05-10T05:29:17.678Z,46.7
2023-05-10T05:35:23.659Z,46.7
2023-05-10T05:41:28.440Z,46.6
2023-05-10T05:47:34.088Z,46.6
2023-05-10T05:53:39.382Z,46.6
2023-05-10T05:59:44.807Z,46.5
2023-05-10T06:05:50.722Z,46.4
2023-05-10T06:11:56.879Z,46.5
2023-05-10T06:18:02.941Z,46.5
2023-05-10T06:24:08.650Z,46.5
2023-05-10T06:30:18.048Z,46.5
2023-05-10T06:36:23.720Z,46.5
2023-05-10T06:42:29.936Z,46.4
2023-05-10T06:48:35.238Z,46.4
2023-05-10T06:54:41.310Z,46.5
2023-05-10T07:00:46.811Z,46.5
2023-05-10T07:06:53.208Z,46.4
2023-05-10T07:12:59.832Z,46.4
2023-05-10T07:19:06.038Z,46.4
2023-05-10T07:25:11.758Z,46.4
2023-05-10T07:31:17.328Z,46.5
2023-05-10T07:37:22.890Z,46.5
2023-05-10T07:43:29.092Z,46.5
2023-05-10T07:49:34.681Z,46.5
2023-05-10T07:55:40.647Z,46.3
2023-05-10T08:01:47.062Z,46.3
2023-05-10T08:07:52.831Z,46.5
2023-05-10T08:13:58.430Z,46.5
2023-05-10T08:20:04.153Z,46.4
2023-05-10T08:26:10.663Z,46.5
2023-05-10T08:32:16.327Z,46.3
2023-05-10T08:38:22.116Z,46.3
2023-05-10T08:44:27.698Z,46.2
2023-05-10T08:50:33.120Z,46.5
2023-05-10T08:56:39.052Z,46.4
2023-05-10T09:02:45.031Z,46.5
2023-05-10T09:08:51.000Z,46.3
2023-05-10T09:14:56.871Z,46.3
2023-05-10T09:21:02.997Z,46.2
2023-05-10T09:27:08.946Z,46.2
2023-05-10T09:33:14.985Z,46.1
2023-05-10T09:39:20.711Z,46.1
2023-05-10T09:45:26.282Z,45.9
2023-05-10T09:51:32.472Z,46.1
2023-05-10T09:57:38.266Z,46
2023-05-10T10:03:44.021Z,45.8
2023-05-10T10:09:50.293Z,45.8
2023-05-10T10:15:56.210Z,45.8
2023-05-10T10:22:02.590Z,45.9
2023-05-10T10:28:08.349Z,45.7
2023-05-10T10:34:14.003Z,45.7
2023-05-10T10:40:19.722Z,45.7
2023-05-10T10:46:26.161Z,45.7
2023-05-10T10:52:32.101Z,45.7
2023-05-10T10:58:38.139Z,45.7
2023-05-10T11:04:44.209Z,45.5
2023-05-10T11:10:50.266Z,45.6
2023-05-10T11:16:56.435Z,45.7
2023-05-10T11:23:02.408Z,45.7
2023-05-10T11:29:08.204Z,45.9
2023-05-10T11:35:14.167Z,46
2023-05-10T11:41:20.000Z,46
2023-05-10T11:47:26.458Z,46.2
2023-05-10T11:53:32.948Z,46.1
2023-05-10T11:59:40.670Z,46.2
2023-05-10T12:05:48.598Z,46.1
2023-05-10T12:11:54.259Z,46.2
2023-05-10T12:17:59.533Z,46.1
2023-05-10T12:24:05.354Z,46.1
2023-05-10T12:30:11.795Z,46.2
2023-05-10T12:36:17.941Z,46.3
2023-05-10T12:42:23.690Z,46.2
2023-05-10T12:48:29.465Z,46.3
2023-05-10T12:54:35.529Z,46.3
2023-05-10T13:00:41.006Z,46.3
2023-05-10T13:06:47.650Z,46.4
2023-05-10T13:12:52.755Z,46.2
2023-05-10T13:18:58.548Z,46.3
2023-05-10T13:25:04.509Z,46.2
2023-05-10T13:31:10.359Z,46.3
2023-05-10T13:37:15.936Z,46.5
2023-05-10T13:43:20.848Z,46.2
2023-05-10T13:49:26.394Z,46.3
2023-05-10T13:55:32.381Z,46.3
2023-05-10T14:01:38.182Z,46.4
2023-05-10T14:07:43.777Z,46.4
2023-05-10T14:13:49.541Z,46.2
2023-05-10T14:19:55.130Z,46.4
2023-05-10T14:26:00.652Z,46.2
2023-05-10T14:32:06.339Z,46.4
2023-05-10T14:38:12.483Z,46.4
2023-05-10T14:44:18.485Z,46.4
2023-05-10T14:50:39.174Z,46.5
2023-05-10T14:56:44.284Z,46.3
2023-05-10T15:02:51.326Z,46.3
2023-05-10T15:08:57.722Z,46.4
2023-05-10T15:15:04.307Z,46.3
2023-05-10T15:21:10.138Z,46.4
2023-05-10T15:27:15.059Z,46.3
2023-05-10T15:33:20.787Z,46.4
2023-05-10T15:39:26.007Z,46.4
2023-05-10T15:45:31.549Z,46.4
2023-05-10T15:51:39.357Z,46.2
2023-05-10T15:57:45.209Z,46.4
2023-05-10T16:03:51.135Z,46.4
2023-05-10T16:09:56.945Z,46.3
2023-05-10T16:16:02.278Z,46.2
2023-05-10T16:22:08.071Z,46.3
2023-05-10T16:28:13.638Z,46.2
2023-05-10T16:34:19.405Z,46.2
2023-05-10T16:40:24.713Z,46.3
2023-05-10T16:46:30.179Z,46.2
2023-05-10T16:52:35.764Z,46.1
2023-05-10T16:58:41.912Z,46.2
2023-05-10T17:04:47.527Z,46.2
2023-05-10T17:10:53.254Z,46.3
2023-05-10T17:16:59.341Z,46.2
2023-05-10T17:23:06.226Z,46.2
2023-05-10T17:29:12.092Z,46.1
2023-05-10T17:35:18.891Z,46
2023-05-10T17:41:24.245Z,46
2023-05-10T17:47:29.972Z,46
2023-05-10T17:53:35.368Z,45.9
2023-05-10T17:59:41.163Z,45.9
2023-05-10T18:05:46.957Z,45.8
2023-05-10T18:11:52.649Z,45.8
2023-05-10T18:17:58.016Z,45.9
2023-05-10T18:24:03.184Z,45.8
2023-05-10T18:30:08.778Z,45.8
2023-05-10T18:36:14.797Z,45.7
2023-05-10T18:42:19.900Z,45.7
2023-05-10T18:48:25.346Z,45.7
2023-05-10T18:54:31.308Z,45.6
2023-05-10T19:00:37.047Z,45.6
2023-05-10T19:06:42.279Z,45.6
2023-05-10T19:12:46.795Z,45.5
2023-05-10T19:18:53.794Z,45.5
2023-05-10T19:25:00.231Z,45.5
2023-05-10T19:31:07.830Z,45.5
2023-05-10T19:37:12.975Z,45.5
2023-05-10T19:43:18.552Z,45.5
2023-05-10T19:49:24.125Z,45.4
2023-05-10T19:55:29.253Z,45.4
2023-05-10T20:01:35.253Z,45.4
2023-05-10T20:07:41.001Z,45.4
2023-05-10T20:13:46.658Z,45.4
2023-05-10T20:19:54.855Z,45.4
2023-05-10T20:26:01.019Z,45.4
2023-05-10T20:32:06.407Z,45.4
2023-05-10T20:38:11.814Z,45.3
2023-05-10T20:44:17.699Z,45.3
2023-05-10T20:50:23.551Z,45.3
2023-05-10T20:56:28.670Z,45.2
2023-05-10T21:02:34.540Z,45.2
2023-05-10T21:08:40.822Z,45.2
2023-05-10T21:14:46.426Z,45.2
2023-05-10T21:20:52.376Z,45.2
2023-05-10T21:26:57.541Z,45.1
2023-05-10T21:33:03.453Z,45.1
2023-05-10T21:39:09.509Z,45.1
2023-05-10T21:45:14.929Z,45.1
2023-05-10T21:51:20.504Z,45
2023-05-10T21:57:25.698Z,45
2023-05-10T22:03:31.651Z,45
2023-05-10T22:09:37.023Z,45
2023-05-10T22:15:43.144Z,44.9
2023-05-10T22:21:48.799Z,44.9
2023-05-10T22:27:54.324Z,44.9
2023-05-10T22:33:59.942Z,44.8
2023-05-10T22:40:06.063Z,44.8
2023-05-10T22:46:12.294Z,44.8
2023-05-10T22:52:18.235Z,44.8
2023-05-10T22:58:23.851Z,44.8
2023-05-10T23:04:30.016Z,44.7
2023-05-10T23:10:35.220Z,44.7
2023-05-10T23:16:41.382Z,44.7
2023-05-10T23:22:46.984Z,44.6
2023-05-10T23:28:52.299Z,44.6
2023-05-10T23:34:57.866Z,44.6
2023-05-10T23:41:02.821Z,44.6
2023-05-10T23:47:08.808Z,44.6
2023-05-10T23:53:14.223Z,44.6
2023-05-10T23:59:19.751Z,44.6
